Time,TemperatureF,DewpointF,PressureIn,WindDirection,WindDirectionDegrees,WindSpeedMPH,WindSpeedGustMPH,Humidity,HourlyPrecipIn,Conditions,Clouds,dailyrainin,SolarRadiationWatts/m^2,SoftwareType,DateUTC
2013-03-30 00:03:00,31.8,26.9,29.96,ESE,121,0.0,0.0,82,0.00,RA,,0.00,0.0,WeatherDisplay:10.37,2013-03-30 00:03:00,
2013-03-30 00:08:00,31.6,26.7,29.96,ESE,121,0.0,0.0,82,0.00,RA,,0.00,0.0,WeatherDisplay:10.37,2013-03-30 00:08:00,
2013-03-30 00:13:00,31.4,26.5,29.96,ESE,121,0.0,0.0,82,0.00,CLR,,0.00,0.0,WeatherDisplay:10.37,2013-03-30 00:13:00,
2013-03-30 00:18:00,31.2,26.3,29.96,ESE,121,0.0,0.0,82,0.00,CLR,,0.00,0.0,WeatherDisplay:10.37,2013-03-30 00:18:00,
2013-03-30 00:23:00,30.9,26.1,29.96,ESE,121,0.0,0.0,82,0.00,CLR,,0.00,0.0,WeatherDisplay:10.37,2013-03-30 00:23:00,
2013-03-30 00:28:00,30.7,25.9,29.96,ESE,121,0.0,0.0,82,0.00,CLR,,0.00,0.0,WeatherDisplay:10.37,2013-03-30 00:28:00,
2013-03-30 00:33:00,30.5,25.7,29.96,ESE,121,0.0,0.0,82,0.00,CLR,,0.00,0.0,WeatherDisplay:10.37,2013-03-30 00:33:00,
2013-03-30 00:38:00,30.2,25.4,29.96,ESE,121,0.0,0.0,82,0.00,CLR,,0.00,0.0,WeatherDisplay:10.37,2013-03-30 00:38:00,
2013-03-30 00:43:00,30.0,25.2,29.96,ESE,121,0.0,0.0,82,0.00,CLR,,0.00,0.0,WeatherDisplay:10.37,2013-03-30 00:43:00,
2013-03-30 00:48:00,29.8,25.0,29.96,ESE,121,0.0,0.0,82,0.00,CLR,,0.00,0.0,WeatherDisplay:10.37,2013-03-30 00:48:00,
2013-03-30 00:53:00,29.6,25.1,29.96,ESE,121,0.0,0.0,83,0.00,CLR,,0.00,0.0,WeatherDisplay:10.37,2013-03-30 00:53:00,
2013-03-30 00:58:00,29.5,25.0,29.96,ESE,121,0.0,0.0,83,0.00,CLR,,0.00,0.0,WeatherDisplay:10.37,2013-03-30 00:58:00,
2013-03-30 01:03:00,29.3,24.8,29.96,ESE,121,0.0,0.0,83,0.00,CLR,,0.00,0.0,WeatherDisplay:10.37,2013-03-30 01:03:00,
2013-03-30 01:08:00,29.1,24.6,29.96,ESE,121,0.0,0.0,83,0.00,CLR,,0.00,0.0,WeatherDisplay:10.37,2013-03-30 01:08:00,
2013-03-30 01:13:00,29.0,24.5,29.96,ESE,120,0.0,0.0,83,0.00,CLR,,0.00,0.0,WeatherDisplay:10.37,2013-03-30 01:13:00,
2013-03-30 01:18:00,28.9,24.7,29.96,ESE,121,0.0,0.0,84,0.00,CLR,,0.00,0.0,WeatherDisplay:10.37,2013-03-30 01:18:00,
2013-03-30 01:23:00,28.8,24.6,29.96,ESE,122,0.0,0.0,84,0.00,CLR,,0.00,0.0,WeatherDisplay:10.37,2013-03-30 01:23:00,
2013-03-30 01:28:00,28.7,24.5,29.96,ESE,121,0.0,0.0,84,0.00,CLR,,0.00,0.0,WeatherDisplay:10.37,2013-03-30 01:28:00,
2013-03-30 01:33:00,28.6,24.7,29.96,ESE,121,0.0,0.0,85,0.00,CLR,,0.00,0.0,WeatherDisplay:10.37,2013-03-30 01:33:00,
2013-03-30 01:38:00,28.6,24.7,29.96,ESE,121,0.0,0.0,85,0.00,CLR,,0.00,0.0,WeatherDisplay:10.37,2013-03-30 01:38:00,
2013-03-30 01:43:00,28.5,24.6,29.96,ESE,121,0.0,0.0,85,0.00,CLR,,0.00,0.0,WeatherDisplay:10.37,2013-03-30 01:43:00,
2013-03-30 01:48:00,28.5,24.8,29.96,ESE,121,0.0,0.0,86,0.00,CLR,,0.00,0.0,WeatherDisplay:10.37,2013-03-30 01:48:00,
2013-03-30 01:53:00,28.6,24.9,29.96,ESE,121,0.0,0.0,86,0.00,CLR,,0.00,0.0,WeatherDisplay:10.37,2013-03-30 01:53:00,
2013-03-30 01:58:00,28.6,25.2,29.95,ESE,121,0.0,0.0,87,0.00,CLR,,0.00,0.0,WeatherDisplay:10.37,2013-03-30 01:58:00,
2013-03-30 02:03:00,28.7,25.3,29.96,ESE,121,0.0,0.0,87,0.00,CLR,,0.00,0.0,WeatherDisplay:10.37,2013-03-30 02:03:00,
2013-03-30 02:08:00,28.8,25.4,29.96,ESE,121,0.0,0.0,87,0.00,CLR,,0.00,0.0,WeatherDisplay:10.37,2013-03-30 02:08:00,
2013-03-30 02:13:00,28.9,25.5,29.96,ESE,121,0.0,0.0,87,0.00,CLR,,0.00,0.0,WeatherDisplay:10.37,2013-03-30 02:13:00,
2013-03-30 02:18:00,29.0,25.9,29.96,ESE,121,0.0,0.0,88,0.00,CLR,,0.00,0.0,WeatherDisplay:10.37,2013-03-30 02:18:00,
2013-03-30 02:23:00,29.1,26.0,29.96,ESE,121,0.0,0.0,88,0.00,CLR,,0.00,0.0,WeatherDisplay:10.37,2013-03-30 02:23:00,
2013-03-30 02:28:00,29.2,26.1,29.96,ESE,121,0.0,0.0,88,0.00,CLR,,0.00,0.0,WeatherDisplay:10.37,2013-03-30 02:28:00,
2013-03-30 02:33:00,29.3,26.2,29.96,ESE,121,0.0,0.0,88,0.00,CLR,,0.00,0.0,WeatherDisplay:10.37,2013-03-30 02:33:00,
2013-03-30 02:38:00,29.3,26.2,29.96,ESE,121,0.0,0.0,88,0.00,CLR,,0.00,0.0,WeatherDisplay:10.37,2013-03-30 02:38:00,
2013-03-30 02:43:00,29.4,26.3,29.96,ESE,121,0.0,0.0,88,0.00,CLR,,0.00,0.0,WeatherDisplay:10.37,2013-03-30 02:43:00,
2013-03-30 02:48:00,29.5,26.4,29.96,ESE,121,0.0,0.0,88,0.00,CLR,,0.00,0.0,WeatherDisplay:10.37,2013-03-30 02:48:00,
2013-03-30 02:53:00,29.6,26.5,29.96,ESE,121,0.0,0.0,88,0.00,CLR,,0.00,0.0,WeatherDisplay:10.37,2013-03-30 02:53:00,
2013-03-30 02:58:00,29.6,26.5,29.96,ESE,120,0.0,0.0,88,0.00,CLR,,0.00,0.0,WeatherDisplay:10.37,2013-03-30 02:58:00,
2013-03-30 03:03:00,29.7,26.6,29.96,ESE,121,0.0,0.0,88,0.00,CLR,,0.00,0.0,WeatherDisplay:10.37,2013-03-30 03:03:00,
2013-03-30 03:08:00,29.7,26.6,29.96,ESE,121,0.0,0.0,88,0.00,CLR,,0.00,0.0,WeatherDisplay:10.37,2013-03-30 03:08:00,
2013-03-30 03:13:00,29.7,26.6,29.96,ESE,120,0.0,0.0,88,0.00,CLR,,0.00,0.0,WeatherDisplay:10.37,2013-03-30 03:13:00,
2013-03-30 03:18:00,29.7,26.6,29.96,ESE,121,0.0,0.0,88,0.00,CLR,,0.00,0.0,WeatherDisplay:10.37,2013-03-30 03:18:00,
2013-03-30 03:23:00,29.7,26.3,29.96,ESE,121,0.0,0.0,87,0.00,CLR,,0.00,0.0,WeatherDisplay:10.37,2013-03-30 03:23:00,
2013-03-30 03:28:00,29.6,26.2,29.96,ESE,121,0.0,0.0,87,0.00,CLR,,0.00,0.0,WeatherDisplay:10.37,2013-03-30 03:28:00,
2013-03-30 03:33:00,29.5,26.1,29.97,ESE,121,0.0,0.0,87,0.00,CLR,,0.00,0.0,WeatherDisplay:10.37,2013-03-30 03:33:00,
2013-03-30 03:38:00,29.4,25.7,29.97,ESE,121,0.0,0.0,86,0.00,CLR,,0.00,0.0,WeatherDisplay:10.37,2013-03-30 03:38:00,
2013-03-30 03:43:00,29.3,25.6,29.97,ESE,122,0.0,0.0,86,0.00,CLR,,0.00,0.0,WeatherDisplay:10.37,2013-03-30 03:43:00,
2013-03-30 03:48:00,29.1,25.4,29.97,ESE,120,0.0,0.0,86,0.00,CLR,,0.00,0.0,WeatherDisplay:10.37,2013-03-30 03:48:00,
2013-03-30 03:53:00,29.0,25.3,29.96,ESE,121,0.0,0.0,86,0.00,CLR,,0.00,0.0,WeatherDisplay:10.37,2013-03-30 03:53:00,
2013-03-30 03:59:00,28.8,25.1,29.97,ESE,121,0.0,0.0,86,0.00,CLR,,0.00,0.0,WeatherDisplay:10.37,2013-03-30 03:59:00,
2013-03-30 04:00:00,28.8,25.1,29.97,ESE,121,0.0,0.0,86,0.00,CLR,,0.00,0.0,WeatherDisplay:10.37,2013-03-30 04:00:00,
2013-03-30 04:01:00,28.7,25.0,29.97,ESE,121,0.0,0.0,86,0.00,CLR,,0.00,0.0,WeatherDisplay:10.37,2013-03-30 04:01:00,
2013-03-30 04:06:00,28.6,24.9,29.97,ESE,121,0.0,0.0,86,0.00,CLR,,0.00,0.0,WeatherDisplay:10.37,2013-03-30 04:06:00,
2013-03-30 04:11:00,28.4,24.7,29.97,ESE,121,0.0,0.0,86,0.00,CLR,,0.00,0.0,WeatherDisplay:10.37,2013-03-30 04:11:00,
2013-03-30 04:16:00,28.2,24.6,29.97,ESE,121,0.0,0.0,86,0.00,CLR,,0.00,0.0,WeatherDisplay:10.37,2013-03-30 04:16:00,
2013-03-30 04:21:00,28.0,24.4,29.97,ESE,121,0.0,0.0,86,0.00,CLR,,0.00,0.0,WeatherDisplay:10.37,2013-03-30 04:21:00,
2013-03-30 04:26:00,27.9,24.3,29.97,ESE,121,0.0,0.0,86,0.00,CLR,,0.00,0.0,WeatherDisplay:10.37,2013-03-30 04:26:00,
2013-03-30 04:31:00,27.8,24.4,29.97,ESE,120,0.0,0.0,87,0.00,CLR,,0.00,0.0,WeatherDisplay:10.37,2013-03-30 04:31:00,
2013-03-30 04:36:00,27.8,24.2,29.97,ESE,121,0.0,0.0,86,0.00,CLR,,0.00,0.0,WeatherDisplay:10.37,2013-03-30 04:36:00,
2013-03-30 04:41:00,27.7,24.3,29.97,ESE,121,0.0,0.0,87,0.00,CLR,,0.00,0.0,WeatherDisplay:10.37,2013-03-30 04:41:00,
2013-03-30 04:46:00,27.7,24.3,29.97,ESE,121,0.0,0.0,87,0.00,CLR,,0.00,0.0,WeatherDisplay:10.37,2013-03-30 04:46:00,
2013-03-30 04:52:00,27.7,24.3,29.97,ESE,122,0.0,0.0,87,0.00,CLR,,0.00,0.0,WeatherDisplay:10.37,2013-03-30 04:52:00,
2013-03-30 04:57:00,27.7,24.3,29.98,ESE,121,0.0,0.0,87,0.00,CLR,,0.00,0.0,WeatherDisplay:10.37,2013-03-30 04:57:00,
2013-03-30 05:02:00,27.7,24.6,29.98,ESE,121,0.0,0.0,88,0.00,CLR,,0.00,0.0,WeatherDisplay:10.37,2013-03-30 05:02:00,
2013-03-30 05:07:00,27.7,24.3,29.98,ESE,121,0.0,0.0,87,0.00,CLR,,0.00,0.0,WeatherDisplay:10.37,2013-03-30 05:07:00,
2013-03-30 05:12:00,27.7,24.3,29.98,ESE,121,0.0,0.0,87,0.00,CLR,,0.00,0.0,WeatherDisplay:10.37,2013-03-30 05:12:00,
2013-03-30 05:17:00,27.6,24.2,29.98,ESE,121,0.0,0.0,87,0.00,CLR,,0.00,0.0,WeatherDisplay:10.37,2013-03-30 05:17:00,
2013-03-30 05:22:00,27.5,24.1,29.98,ESE,121,0.0,0.0,87,0.00,OVC,,0.00,0.0,WeatherDisplay:10.37,2013-03-30 05:22:00,
2013-03-30 05:27:00,27.5,24.1,29.98,ESE,121,0.0,0.0,87,0.00,OVC,,0.00,0.0,WeatherDisplay:10.37,2013-03-30 05:27:00,
2013-03-30 05:32:00,27.3,23.9,29.98,ESE,121,0.0,0.0,87,0.00,OVC,,0.00,0.0,WeatherDisplay:10.37,2013-03-30 05:32:00,
2013-03-30 05:37:00,27.3,23.9,29.98,ESE,121,0.0,0.0,87,0.00,OVC,,0.00,0.0,WeatherDisplay:10.37,2013-03-30 05:37:00,
2013-03-30 05:42:00,27.2,23.8,29.98,ESE,121,0.0,0.0,87,0.00,OVC,,0.00,0.0,WeatherDisplay:10.37,2013-03-30 05:42:00,
2013-03-30 05:47:00,27.1,23.7,29.98,ESE,120,0.0,0.0,87,0.00,OVC,,0.00,0.0,WeatherDisplay:10.37,2013-03-30 05:47:00,
2013-03-30 05:52:00,27.1,23.7,29.99,ESE,119,0.0,0.0,87,0.00,OVC,,0.00,5.0,WeatherDisplay:10.37,2013-03-30 05:52:00,
2013-03-30 05:57:00,27.1,23.7,29.99,ESE,120,0.0,0.0,87,0.00,OVC,,0.00,5.0,WeatherDisplay:10.37,2013-03-30 05:57:00,
2013-03-30 06:02:00,27.1,23.7,29.98,ESE,121,0.0,0.0,87,0.00,CLR,,0.00,7.0,WeatherDisplay:10.37,2013-03-30 06:02:00,
2013-03-30 06:07:00,27.1,23.7,29.99,ESE,119,0.0,0.0,87,0.00,SCT,,0.00,9.0,WeatherDisplay:10.37,2013-03-30 06:07:00,
2013-03-30 06:12:00,27.0,23.6,29.99,ESE,119,0.0,0.0,87,0.00,SCT,,0.00,11.0,WeatherDisplay:10.37,2013-03-30 06:12:00,
2013-03-30 06:17:00,27.0,23.6,29.98,ESE,121,0.0,0.0,87,0.00,SCT,,0.00,14.0,WeatherDisplay:10.37,2013-03-30 06:17:00,
2013-03-30 06:22:00,26.9,23.5,29.98,ESE,121,0.0,0.0,87,0.00,FEW,,0.00,28.0,WeatherDisplay:10.37,2013-03-30 06:22:00,
2013-03-30 06:27:00,26.8,23.4,29.98,ESE,121,1.2,1.2,87,0.00,SCT,,0.00,25.0,WeatherDisplay:10.37,2013-03-30 06:27:00,
2013-03-30 06:32:00,26.8,23.4,29.99,ESE,119,0.0,0.0,87,0.00,SCT,,0.00,26.0,WeatherDisplay:10.37,2013-03-30 06:32:00,
2013-03-30 06:37:00,26.9,23.5,29.99,ESE,121,0.0,0.0,87,0.00,CLR,,0.00,67.0,WeatherDisplay:10.37,2013-03-30 06:37:00,
2013-03-30 06:42:00,27.0,23.9,29.99,ESE,120,0.0,0.0,88,0.00,CLR,,0.00,97.0,WeatherDisplay:10.37,2013-03-30 06:42:00,
2013-03-30 06:47:00,27.1,24.0,29.98,ESE,120,0.0,0.0,88,0.00,CLR,,0.00,104.0,WeatherDisplay:10.37,2013-03-30 06:47:00,
2013-03-30 06:52:00,27.4,24.6,29.99,ESE,121,0.0,0.0,89,0.00,CLR,,0.00,91.0,WeatherDisplay:10.37,2013-03-30 06:52:00,
2013-03-30 06:57:00,27.6,24.5,29.99,ESE,120,0.0,0.5,88,0.00,CLR,,0.00,104.0,WeatherDisplay:10.37,2013-03-30 06:57:00,
2013-03-30 07:02:00,27.8,24.7,29.99,ESE,119,0.0,0.0,88,0.00,CLR,,0.00,113.0,WeatherDisplay:10.37,2013-03-30 07:02:00,
2013-03-30 07:07:00,27.9,24.8,29.98,ESE,119,1.2,1.2,88,0.00,CLR,,0.00,127.0,WeatherDisplay:10.37,2013-03-30 07:07:00,
2013-03-30 07:12:00,28.0,24.6,29.99,ESE,120,0.0,0.0,87,0.00,CLR,,0.00,142.0,WeatherDisplay:10.37,2013-03-30 07:12:00,
2013-03-30 07:17:00,28.1,24.7,29.99,ESE,121,0.0,0.0,87,0.00,CLR,,0.00,158.0,WeatherDisplay:10.37,2013-03-30 07:17:00,
2013-03-30 07:22:00,28.2,25.1,29.99,ESE,119,2.3,2.3,88,0.00,CLR,,0.00,174.0,WeatherDisplay:10.37,2013-03-30 07:22:00,
2013-03-30 07:28:00,28.4,25.0,29.99,SE,132,3.5,3.5,87,0.00,CLR,,0.00,190.0,WeatherDisplay:10.37,2013-03-30 07:28:00,
2013-03-30 07:33:00,28.6,25.2,29.99,SE,144,3.0,3.0,87,0.00,CLR,,0.00,209.0,WeatherDisplay:10.37,2013-03-30 07:33:00,
2013-03-30 07:38:00,28.8,25.1,29.99,SE,144,1.2,0.0,86,0.00,CLR,,0.00,227.0,WeatherDisplay:10.37,2013-03-30 07:38:00,
2013-03-30 07:43:00,29.0,25.3,29.99,SE,144,0.0,0.0,86,0.00,CLR,,0.00,232.0,WeatherDisplay:10.37,2013-03-30 07:43:00,
2013-03-30 07:48:00,29.2,25.5,29.99,SE,144,2.0,2.0,86,0.00,CLR,,0.00,239.0,WeatherDisplay:10.37,2013-03-30 07:48:00,
2013-03-30 07:53:00,29.4,25.4,29.99,SE,144,0.0,0.0,85,0.00,CLR,,0.00,248.0,WeatherDisplay:10.37,2013-03-30 07:53:00,
2013-03-30 07:58:00,29.6,25.6,29.99,SE,144,0.0,0.0,85,0.00,CLR,,0.00,262.0,WeatherDisplay:10.37,2013-03-30 07:58:00,
2013-03-30 08:03:00,29.8,25.8,29.99,SE,144,2.3,2.3,85,0.00,CLR,,0.00,272.0,WeatherDisplay:10.37,2013-03-30 08:03:00,
2013-03-30 08:08:00,30.0,26.0,29.99,SE,144,0.0,0.0,85,0.00,CLR,,0.00,287.0,WeatherDisplay:10.37,2013-03-30 08:08:00,
2013-03-30 08:13:00,30.2,25.9,29.99,SE,144,0.0,0.0,84,0.00,CLR,,0.00,301.0,WeatherDisplay:10.37,2013-03-30 08:13:00,
2013-03-30 08:18:00,30.4,25.9,29.99,SE,144,0.0,0.0,83,0.00,CLR,,0.00,325.0,WeatherDisplay:10.37,2013-03-30 08:18:00,
2013-03-30 08:23:00,30.6,26.1,29.99,SE,144,1.0,1.0,83,0.00,CLR,,0.00,346.0,WeatherDisplay:10.37,2013-03-30 08:23:00,
2013-03-30 08:28:00,30.9,26.1,29.99,SE,144,1.2,0.0,82,0.00,CLR,,0.00,341.0,WeatherDisplay:10.37,2013-03-30 08:28:00,
2013-03-30 08:33:00,31.2,26.3,29.99,SE,144,0.0,0.0,82,0.00,CLR,,0.00,320.0,WeatherDisplay:10.37,2013-03-30 08:33:00,
2013-03-30 08:38:00,31.5,26.3,29.99,SE,144,0.0,0.0,81,0.00,CLR,,0.00,167.0,WeatherDisplay:10.37,2013-03-30 08:38:00,
2013-03-30 08:43:00,31.8,26.6,29.99,SE,144,0.0,0.0,81,0.00,FEW,,0.00,178.0,WeatherDisplay:10.37,2013-03-30 08:43:00,
2013-03-30 08:48:00,32.1,26.9,29.99,SE,144,1.2,1.2,81,0.00,SCT,,0.00,199.0,WeatherDisplay:10.37,2013-03-30 08:48:00,
2013-03-30 08:53:00,32.4,26.9,29.99,SE,144,0.0,0.0,80,0.00,SCT,,0.00,199.0,WeatherDisplay:10.37,2013-03-30 08:53:00,
2013-03-30 08:58:00,32.7,27.2,29.99,SE,144,0.0,0.0,80,0.00,SCT,,0.00,190.0,WeatherDisplay:10.37,2013-03-30 08:58:00,
2013-03-30 09:03:00,32.7,26.9,30.00,SE,144,0.0,0.0,79,0.00,SCT,,0.00,186.0,WeatherDisplay:10.37,2013-03-30 09:03:00,
2013-03-30 09:08:00,33.2,27.4,30.00,SE,144,0.0,0.0,79,0.00,SCT,,0.00,179.0,WeatherDisplay:10.37,2013-03-30 09:08:00,
2013-03-30 09:13:00,33.5,27.4,30.00,SE,144,0.0,0.0,78,0.00,SCT,,0.00,181.0,WeatherDisplay:10.37,2013-03-30 09:13:00,
2013-03-30 09:18:00,33.8,27.4,30.00,SE,144,2.3,2.3,77,0.00,SCT,,0.00,181.0,WeatherDisplay:10.37,2013-03-30 09:18:00,
2013-03-30 09:23:00,34.1,27.6,30.00,SE,144,3.5,3.5,77,0.00,SCT,,0.00,200.0,WeatherDisplay:10.37,2013-03-30 09:23:00,
2013-03-30 09:28:00,34.4,27.9,30.00,SE,136,5.0,5.0,77,0.00,SCT,,0.00,218.0,WeatherDisplay:10.37,2013-03-30 09:28:00,
2013-03-30 09:33:00,34.7,27.9,30.00,ESE,115,5.8,5.8,76,0.00,SCT,,0.00,234.0,WeatherDisplay:10.37,2013-03-30 09:33:00,
2013-03-30 09:34:00,34.7,27.9,30.00,ESE,117,5.8,5.8,76,0.00,SCT,,0.00,234.0,WeatherDisplay:10.37,2013-03-30 09:34:00,
2013-03-30 09:39:00,34.9,27.5,30.00,ESE,118,3.5,3.5,74,0.00,SCT,,0.00,234.0,WeatherDisplay:10.37,2013-03-30 09:39:00,
2013-03-30 09:44:00,35.1,28.0,30.00,SE,126,5.0,5.0,75,0.00,SCT,,0.00,257.0,WeatherDisplay:10.37,2013-03-30 09:44:00,
2013-03-30 09:49:00,35.3,28.2,30.00,SE,137,3.5,3.5,75,0.00,SCT,,0.00,295.0,WeatherDisplay:10.37,2013-03-30 09:49:00,
2013-03-30 09:55:00,35.7,28.2,30.00,SE,137,4.0,4.0,74,0.00,SCT,,0.00,290.0,WeatherDisplay:10.37,2013-03-30 09:55:00,
2013-03-30 10:00:00,36.0,28.5,30.00,SE,138,3.5,3.5,74,0.00,SCT,,0.00,396.0,WeatherDisplay:10.37,2013-03-30 10:00:00,
2013-03-30 10:05:00,36.3,28.8,30.00,ESE,115,3.5,3.5,74,0.00,FEW,,0.00,302.0,WeatherDisplay:10.37,2013-03-30 10:05:00,
2013-03-30 10:10:00,36.5,28.7,30.00,ESE,117,4.6,4.6,73,0.00,SCT,,0.00,327.0,WeatherDisplay:10.37,2013-03-30 10:10:00,
2013-03-30 10:15:00,36.7,28.9,30.00,ESE,113,10.4,10.4,73,0.00,SCT,,0.00,311.0,WeatherDisplay:10.37,2013-03-30 10:15:00,
2013-03-30 10:20:00,36.8,29.0,30.00,SSE,150,9.2,9.2,73,0.00,SCT,,0.00,292.0,WeatherDisplay:10.37,2013-03-30 10:20:00,
2013-03-30 10:25:00,36.9,29.1,29.99,ESE,118,5.8,5.8,73,0.00,FEW,,0.00,439.0,WeatherDisplay:10.37,2013-03-30 10:25:00,
2013-03-30 10:30:00,37.2,29.3,30.00,ESE,119,6.9,6.9,73,0.00,CLR,,0.00,367.0,WeatherDisplay:10.37,2013-03-30 10:30:00,
2013-03-30 10:35:00,37.5,29.3,29.99,SSE,161,5.8,5.8,72,0.00,CLR,,0.00,705.0,WeatherDisplay:10.37,2013-03-30 10:35:00,
2013-03-30 10:40:00,37.7,29.5,29.99,ESE,119,6.9,6.9,72,0.00,CLR,,0.00,679.0,WeatherDisplay:10.37,2013-03-30 10:40:00,
2013-03-30 10:45:00,38.1,29.9,29.99,ESE,114,7.0,7.0,72,0.00,CLR,,0.00,661.0,WeatherDisplay:10.37,2013-03-30 10:45:00,
2013-03-30 10:50:00,38.7,30.4,29.99,East,101,12.0,12.0,72,0.00,CLR,,0.00,504.0,WeatherDisplay:10.37,2013-03-30 10:50:00,
2013-03-30 10:55:00,39.1,30.1,30.00,ESE,114,5.8,5.8,70,0.00,CLR,,0.00,733.0,WeatherDisplay:10.37,2013-03-30 10:55:00,
2013-03-30 11:00:00,39.4,30.1,30.00,SE,141,11.5,11.5,69,0.00,CLR,,0.00,478.0,WeatherDisplay:10.37,2013-03-30 11:00:00,
2013-03-30 11:05:00,39.8,30.1,29.99,ESE,115,9.2,9.2,68,0.00,CLR,,0.00,703.0,WeatherDisplay:10.37,2013-03-30 11:05:00,
2013-03-30 11:10:00,40.1,30.7,29.99,ESE,121,9.2,9.2,69,0.00,CLR,,0.00,294.0,WeatherDisplay:10.37,2013-03-30 11:10:00,
2013-03-30 11:15:00,40.4,30.7,29.99,SE,140,3.5,3.5,68,0.00,CLR,,0.00,786.0,WeatherDisplay:10.37,2013-03-30 11:15:00,
2013-03-30 11:20:00,40.6,29.7,29.99,SE,142,11.5,11.5,65,0.00,FEW,,0.00,237.0,WeatherDisplay:10.37,2013-03-30 11:20:00,
2013-03-30 11:25:00,40.6,29.4,29.99,ESE,115,8.1,8.1,64,0.00,SCT,,0.00,223.0,WeatherDisplay:10.37,2013-03-30 11:25:00,
2013-03-30 11:30:00,40.3,29.5,29.99,ESE,116,8.1,8.1,65,0.00,BKN,,0.00,213.0,WeatherDisplay:10.37,2013-03-30 11:30:00,
2013-03-30 11:35:00,40.1,29.6,29.99,ESE,114,9.2,9.2,66,0.00,BKN,,0.00,244.0,WeatherDisplay:10.37,2013-03-30 11:35:00,
2013-03-30 11:40:00,40.0,29.6,29.99,ESE,117,10.0,10.0,66,0.00,BKN,,0.00,207.0,WeatherDisplay:10.37,2013-03-30 11:40:00,
2013-03-30 11:45:00,39.9,29.5,29.99,ESE,117,6.9,6.9,66,0.00,BKN,,0.00,200.0,WeatherDisplay:10.37,2013-03-30 11:45:00,
2013-03-30 11:50:00,39.7,28.9,30.00,ESE,118,8.1,8.1,65,0.00,BKN,,0.00,206.0,WeatherDisplay:10.37,2013-03-30 11:50:00,
2013-03-30 11:55:00,39.4,29.0,30.00,SE,129,4.6,4.6,66,0.00,BKN,,0.00,225.0,WeatherDisplay:10.37,2013-03-30 11:55:00,
2013-03-30 12:00:00,39.3,28.9,30.00,ESE,113,6.9,6.9,66,0.00,BKN,,0.00,213.0,WeatherDisplay:10.37,2013-03-30 12:00:00,
2013-03-30 12:05:00,39.2,29.5,30.00,SE,126,5.8,5.8,68,0.00,BKN,,0.00,193.0,WeatherDisplay:10.37,2013-03-30 12:05:00,
2013-03-30 12:10:00,39.2,29.2,30.00,East,80,3.5,3.5,67,0.00,BKN,,0.00,174.0,WeatherDisplay:10.37,2013-03-30 12:10:00,
2013-03-30 12:15:00,39.2,29.2,30.00,ESE,122,9.2,9.2,67,0.00,BKN,,0.00,185.0,WeatherDisplay:10.37,2013-03-30 12:15:00,
2013-03-30 12:20:00,39.2,29.2,30.00,ENE,76,3.5,3.5,67,0.00,BKN,,0.00,186.0,WeatherDisplay:10.37,2013-03-30 12:20:00,
2013-03-30 12:25:00,39.2,29.5,30.00,East,80,1.2,0.0,68,0.00,BKN,,0.00,174.0,WeatherDisplay:10.37,2013-03-30 12:25:00,
2013-03-30 12:30:00,39.2,29.2,30.00,SE,129,10.4,10.4,67,0.00,BKN,,0.00,156.0,WeatherDisplay:10.37,2013-03-30 12:30:00,
2013-03-30 12:35:00,39.2,29.2,30.00,ENE,74,6.9,6.9,67,0.00,BKN,,0.00,160.0,WeatherDisplay:10.37,2013-03-30 12:35:00,
2013-03-30 12:40:00,39.1,29.4,29.99,SE,132,3.5,3.5,68,0.00,BKN,,0.00,149.0,WeatherDisplay:10.37,2013-03-30 12:40:00,
2013-03-30 12:45:00,39.1,29.4,29.99,SE,134,4.6,4.6,68,0.00,BKN,,0.00,162.0,WeatherDisplay:10.37,2013-03-30 12:45:00,
2013-03-30 12:50:00,39.0,29.0,30.00,SE,138,9.2,9.2,67,0.00,BKN,,0.00,156.0,WeatherDisplay:10.37,2013-03-30 12:50:00,
2013-03-30 12:55:00,39.0,29.0,30.00,SSE,150,4.6,4.6,67,0.00,BKN,,0.00,183.0,WeatherDisplay:10.37,2013-03-30 12:55:00,
2013-03-30 13:00:00,39.0,29.0,30.00,ESE,115,4.6,4.6,67,0.00,BKN,,0.00,178.0,WeatherDisplay:10.37,2013-03-30 13:00:00,
2013-03-30 13:05:00,39.0,29.0,30.00,SE,143,6.0,6.0,67,0.00,BKN,,0.00,207.0,WeatherDisplay:10.37,2013-03-30 13:05:00,
2013-03-30 13:10:00,39.1,29.1,30.00,SE,139,6.9,6.9,67,0.00,BKN,,0.00,265.0,WeatherDisplay:10.37,2013-03-30 13:10:00,
2013-03-30 13:15:00,39.2,29.2,30.00,East,96,5.0,5.0,67,0.00,BKN,,0.00,281.0,WeatherDisplay:10.37,2013-03-30 13:15:00,
2013-03-30 13:20:00,39.3,28.9,29.99,SE,126,5.0,5.0,66,0.00,SCT,,0.00,272.0,WeatherDisplay:10.37,2013-03-30 13:20:00,
2013-03-30 13:25:00,39.4,28.6,29.99,SE,136,9.0,9.0,65,0.00,SCT,,0.00,246.0,WeatherDisplay:10.37,2013-03-30 13:25:00,
2013-03-30 13:30:00,39.4,28.2,29.99,SE,129,7.0,7.0,64,0.00,BKN,,0.00,165.0,WeatherDisplay:10.37,2013-03-30 13:30:00,
2013-03-30 13:35:00,39.4,27.1,29.99,ESE,118,6.0,6.0,61,0.00,BKN,,0.00,142.0,WeatherDisplay:10.37,2013-03-30 13:35:00,
2013-03-30 13:40:00,39.4,27.5,29.99,ESE,107,4.0,4.0,62,0.00,BKN,,0.00,148.0,WeatherDisplay:10.37,2013-03-30 13:40:00,
2013-03-30 13:45:00,39.4,28.2,29.99,SSE,151,6.9,6.9,64,0.00,BKN,,0.00,158.0,WeatherDisplay:10.37,2013-03-30 13:45:00,
2013-03-30 13:50:00,39.5,28.3,29.99,SSE,157,5.8,5.8,64,0.00,BKN,,0.00,179.0,WeatherDisplay:10.37,2013-03-30 13:50:00,
2013-03-30 13:55:00,39.5,28.3,29.99,ESE,117,7.0,7.0,64,0.00,BKN,,0.00,223.0,WeatherDisplay:10.37,2013-03-30 13:55:00,
2013-03-30 14:00:00,39.5,28.3,29.99,SE,129,5.8,5.8,64,0.00,BKN,,0.00,311.0,WeatherDisplay:10.37,2013-03-30 14:00:00,
2013-03-30 14:05:00,39.6,28.8,29.99,SE,131,6.0,6.0,65,0.00,SCT,,0.00,309.0,WeatherDisplay:10.37,2013-03-30 14:05:00,
2013-03-30 14:10:00,39.7,28.1,29.99,ESE,118,3.5,3.5,63,0.00,SCT,,0.00,209.0,WeatherDisplay:10.37,2013-03-30 14:10:00,
2013-03-30 14:15:00,39.7,27.3,29.99,ESE,105,3.5,3.5,61,0.00,SCT,,0.00,197.0,WeatherDisplay:10.37,2013-03-30 14:15:00,
2013-03-30 14:20:00,39.8,27.0,29.99,ESE,122,5.8,5.8,60,0.00,BKN,,0.00,225.0,WeatherDisplay:10.37,2013-03-30 14:20:00,
2013-03-30 14:25:00,39.9,27.1,29.99,ESE,109,3.5,3.5,60,0.00,BKN,,0.00,213.0,WeatherDisplay:10.37,2013-03-30 14:25:00,
2013-03-30 14:30:00,39.9,27.1,29.99,SE,131,5.0,5.0,60,0.00,BKN,,0.00,186.0,WeatherDisplay:10.37,2013-03-30 14:30:00,
2013-03-30 14:35:00,40.0,27.6,29.99,ESE,117,2.3,2.3,61,0.00,BKN,,0.00,174.0,WeatherDisplay:10.37,2013-03-30 14:35:00,
2013-03-30 14:40:00,40.2,28.2,29.99,ESE,111,5.8,5.8,62,0.00,BKN,,0.00,169.0,WeatherDisplay:10.37,2013-03-30 14:40:00,
2013-03-30 14:45:00,40.3,27.9,29.98,SE,137,2.3,2.3,61,0.00,BKN,,0.00,163.0,WeatherDisplay:10.37,2013-03-30 14:45:00,
2013-03-30 14:50:00,40.3,28.3,29.98,SE,126,3.5,0.0,62,0.00,BKN,,0.00,174.0,WeatherDisplay:10.37,2013-03-30 14:50:00,
2013-03-30 14:55:00,40.4,28.4,29.98,SE,134,10.4,10.4,62,0.00,BKN,,0.00,195.0,WeatherDisplay:10.37,2013-03-30 14:55:00,
2013-03-30 15:00:00,40.4,28.0,29.98,SE,132,8.0,8.0,61,0.00,BKN,,0.00,190.0,WeatherDisplay:10.37,2013-03-30 15:00:00,
2013-03-30 15:05:00,40.3,26.7,29.98,ESE,110,4.6,4.6,58,0.00,BKN,,0.00,220.0,WeatherDisplay:10.37,2013-03-30 15:05:00,
2013-03-30 15:10:00,40.2,27.8,29.98,ESE,123,6.9,6.9,61,0.00,SCT,,0.00,443.0,WeatherDisplay:10.37,2013-03-30 15:10:00,
2013-03-30 15:15:00,40.3,27.9,29.98,ESE,105,9.2,9.2,61,0.00,CLR,,0.00,427.0,WeatherDisplay:10.37,2013-03-30 15:15:00,
2013-03-30 15:20:00,40.3,27.1,29.98,SE,132,10.4,10.4,59,0.00,CLR,,0.00,422.0,WeatherDisplay:10.37,2013-03-30 15:20:00,
2013-03-30 15:26:00,40.3,27.5,29.98,ESE,121,5.0,5.0,60,0.00,CLR,,0.00,406.0,WeatherDisplay:10.37,2013-03-30 15:26:00,
2013-03-30 15:31:00,40.3,27.1,29.98,ESE,121,5.8,5.8,59,0.00,CLR,,0.00,265.0,WeatherDisplay:10.37,2013-03-30 15:31:00,
2013-03-30 15:36:00,40.2,27.4,29.98,ESE,117,6.0,6.0,60,0.00,CLR,,0.00,362.0,WeatherDisplay:10.37,2013-03-30 15:36:00,
2013-03-30 15:41:00,40.0,27.2,29.98,ESE,113,10.0,10.0,60,0.00,CLR,,0.00,364.0,WeatherDisplay:10.37,2013-03-30 15:41:00,
2013-03-30 15:46:00,40.0,27.2,29.98,SE,128,11.5,11.5,60,0.00,CLR,,0.00,345.0,WeatherDisplay:10.37,2013-03-30 15:46:00,
2013-03-30 15:51:00,39.9,27.1,29.98,SSE,157,5.8,5.8,60,0.00,CLR,,0.00,343.0,WeatherDisplay:10.37,2013-03-30 15:51:00,
2013-03-30 15:56:00,39.9,27.1,29.98,SE,140,5.8,5.8,60,0.00,CLR,,0.00,322.0,WeatherDisplay:10.37,2013-03-30 15:56:00,
2013-03-30 16:01:00,39.9,26.7,29.98,SSE,158,4.6,4.6,59,0.00,CLR,,0.00,322.0,WeatherDisplay:10.37,2013-03-30 16:01:00,
2013-03-30 16:06:00,39.9,25.9,29.98,South,187,5.0,5.0,57,0.00,CLR,,0.00,313.0,WeatherDisplay:10.37,2013-03-30 16:06:00,
2013-03-30 16:11:00,39.9,26.3,29.98,SSE,148,3.5,3.5,58,0.00,CLR,,0.00,304.0,WeatherDisplay:10.37,2013-03-30 16:11:00,
2013-03-30 16:16:00,39.9,26.3,29.98,East,96,4.6,4.6,58,0.00,CLR,,0.00,295.0,WeatherDisplay:10.37,2013-03-30 16:16:00,
2013-03-30 16:21:00,39.9,26.3,29.98,SE,138,10.4,10.4,58,0.00,CLR,,0.00,274.0,WeatherDisplay:10.37,2013-03-30 16:21:00,
2013-03-30 16:27:00,39.9,25.5,29.98,SE,131,5.0,5.5,56,0.00,CLR,,0.00,258.0,WeatherDisplay:10.37,2013-03-30 16:27:00,
2013-03-30 16:32:00,39.8,24.5,29.98,SSE,165,5.8,5.8,54,0.00,CLR,,0.00,158.0,WeatherDisplay:10.37,2013-03-30 16:32:00,
2013-03-30 16:37:00,39.7,24.0,29.98,ESE,119,5.8,5.8,53,0.00,FEW,,0.00,146.0,WeatherDisplay:10.37,2013-03-30 16:37:00,
2013-03-30 16:42:00,39.6,24.3,29.97,SE,134,4.0,4.0,54,0.00,SCT,,0.00,63.0,WeatherDisplay:10.37,2013-03-30 16:42:00,
2013-03-30 16:47:00,39.5,25.1,29.98,SE,131,5.8,5.8,56,0.00,SCT,,0.00,202.0,WeatherDisplay:10.37,2013-03-30 16:47:00,
2013-03-30 16:52:00,39.4,25.4,29.98,ESE,102,6.9,6.9,57,0.00,SCT,,0.00,97.0,WeatherDisplay:10.37,2013-03-30 16:52:00,
2013-03-30 16:57:00,39.4,25.8,29.98,SSE,150,6.0,6.0,58,0.00,SCT,,0.00,135.0,WeatherDisplay:10.37,2013-03-30 16:57:00,
2013-03-30 17:02:00,39.4,26.2,29.98,ESE,106,9.2,9.2,59,0.00,SCT,,0.00,65.0,WeatherDisplay:10.37,2013-03-30 17:02:00,
2013-03-30 17:07:00,39.3,25.7,29.98,SE,129,9.2,9.2,58,0.00,BKN,,0.00,46.0,WeatherDisplay:10.37,2013-03-30 17:07:00,
2013-03-30 17:12:00,39.2,25.2,29.98,ESE,103,5.8,5.8,57,0.00,BKN,,0.00,47.0,WeatherDisplay:10.37,2013-03-30 17:12:00,
2013-03-30 17:17:00,39.1,25.6,29.98,ESE,107,9.2,9.2,58,0.00,BKN,,0.00,35.0,WeatherDisplay:10.37,2013-03-30 17:17:00,
2013-03-30 17:22:00,39.0,25.9,29.98,SE,132,6.9,6.9,59,0.00,BKN,,0.00,35.0,WeatherDisplay:10.37,2013-03-30 17:22:00,
2013-03-30 17:27:00,39.0,26.3,29.98,SE,128,6.0,6.0,60,0.00,BKN,,0.00,37.0,WeatherDisplay:10.37,2013-03-30 17:27:00,
2013-03-30 17:32:00,38.9,26.2,29.98,ESE,118,6.9,6.9,60,0.00,BKN,,0.00,42.0,WeatherDisplay:10.37,2013-03-30 17:32:00,
2013-03-30 17:37:00,38.8,26.5,29.98,ESE,105,8.1,8.1,61,0.00,BKN,,0.00,46.0,WeatherDisplay:10.37,2013-03-30 17:37:00,
2013-03-30 17:42:00,38.8,26.9,29.98,ESE,123,5.8,5.8,62,0.00,BKN,,0.00,47.0,WeatherDisplay:10.37,2013-03-30 17:42:00,
2013-03-30 17:47:00,38.8,27.7,29.99,ESE,106,3.5,3.5,64,0.00,BKN,,0.00,46.0,WeatherDisplay:10.37,2013-03-30 17:47:00,
2013-03-30 17:52:00,38.8,28.0,29.99,SE,128,10.4,10.4,65,0.00,SCT,,0.00,47.0,WeatherDisplay:10.37,2013-03-30 17:52:00,
2013-03-30 17:57:00,38.8,27.7,29.99,ESE,107,10.4,10.4,64,0.00,BKN,,0.00,40.0,WeatherDisplay:10.37,2013-03-30 17:57:00,
2013-03-30 18:02:00,38.8,28.0,29.99,ESE,115,6.0,6.0,65,0.00,BKN,,0.00,32.0,WeatherDisplay:10.37,2013-03-30 18:02:00,
2013-03-30 18:07:00,38.7,27.9,29.99,ESE,110,6.9,6.9,65,0.00,BKN,,0.00,26.0,WeatherDisplay:10.37,2013-03-30 18:07:00,
2013-03-30 18:12:00,38.6,27.8,29.99,ESE,119,6.9,6.9,65,0.00,BKN,,0.00,21.0,WeatherDisplay:10.37,2013-03-30 18:12:00,
2013-03-30 18:17:00,38.5,28.1,29.99,SE,124,5.0,5.0,66,0.00,BKN,,0.00,18.0,WeatherDisplay:10.37,2013-03-30 18:17:00,
2013-03-30 18:22:00,38.4,27.7,29.99,East,101,4.6,4.6,65,0.00,BKN,,0.00,16.0,WeatherDisplay:10.37,2013-03-30 18:22:00,
2013-03-30 18:27:00,38.2,27.5,29.99,ESE,103,5.8,5.8,65,0.00,BKN,,0.00,12.0,WeatherDisplay:10.37,2013-03-30 18:27:00,
2013-03-30 18:32:00,38.1,27.0,29.99,ESE,119,5.8,5.8,64,0.00,BKN,,0.00,11.0,WeatherDisplay:10.37,2013-03-30 18:32:00,
2013-03-30 18:37:00,37.9,27.2,29.99,ESE,110,4.6,4.6,65,0.00,BKN,,0.00,7.0,WeatherDisplay:10.37,2013-03-30 18:37:00,
2013-03-30 18:42:00,37.7,26.6,29.99,SE,134,6.9,6.9,64,0.00,BKN,,0.00,5.0,WeatherDisplay:10.37,2013-03-30 18:42:00,
2013-03-30 18:48:00,37.6,26.1,29.99,SE,133,6.9,6.9,63,0.00,OVC,,0.00,0.0,WeatherDisplay:10.37,2013-03-30 18:48:00,
2013-03-30 18:53:00,37.4,26.3,29.99,SE,130,5.8,5.8,64,0.00,OVC,,0.00,0.0,WeatherDisplay:10.37,2013-03-30 18:53:00,
2013-03-30 18:58:00,37.3,26.6,29.99,SE,132,3.5,3.5,65,0.00,OVC,,0.00,0.0,WeatherDisplay:10.37,2013-03-30 18:58:00,
2013-03-30 19:03:00,37.2,26.5,29.99,SE,132,2.3,2.3,65,0.00,CLR,,0.00,0.0,WeatherDisplay:10.37,2013-03-30 19:03:00,
2013-03-30 19:08:00,37.1,26.8,29.99,SE,133,2.3,2.3,66,0.00,CLR,,0.00,0.0,WeatherDisplay:10.37,2013-03-30 19:08:00,
2013-03-30 19:13:00,36.9,26.6,29.99,SE,132,3.5,3.5,66,0.00,CLR,,0.00,0.0,WeatherDisplay:10.37,2013-03-30 19:13:00,
2013-03-30 19:18:00,36.8,26.5,29.99,SE,130,3.0,3.0,66,0.00,CLR,,0.00,0.0,WeatherDisplay:10.37,2013-03-30 19:18:00,
2013-03-30 19:23:00,36.6,25.9,30.00,ESE,121,4.6,4.6,65,0.00,CLR,,0.00,0.0,WeatherDisplay:10.37,2013-03-30 19:23:00,
2013-03-30 19:28:00,36.5,25.8,29.99,ESE,111,5.8,5.8,65,0.00,CLR,,0.00,0.0,WeatherDisplay:10.37,2013-03-30 19:28:00,
2013-03-30 19:33:00,36.4,26.1,30.00,ESE,110,3.5,3.5,66,0.00,CLR,,0.00,0.0,WeatherDisplay:10.37,2013-03-30 19:33:00,
2013-03-30 19:38:00,36.3,26.4,30.00,ESE,119,7.0,7.0,67,0.00,CLR,,0.00,0.0,WeatherDisplay:10.37,2013-03-30 19:38:00,
2013-03-30 19:43:00,36.3,26.7,30.00,ESE,119,10.4,10.4,68,0.00,CLR,,0.00,0.0,WeatherDisplay:10.37,2013-03-30 19:43:00,
2013-03-30 19:48:00,36.3,27.1,30.00,ESE,113,5.8,5.8,69,0.00,CLR,,0.00,0.0,WeatherDisplay:10.37,2013-03-30 19:48:00,
2013-03-30 19:53:00,36.3,27.1,30.00,ESE,117,5.8,5.8,69,0.00,CLR,,0.00,0.0,WeatherDisplay:10.37,2013-03-30 19:53:00,
2013-03-30 19:58:00,36.3,27.4,30.00,ESE,113,6.9,6.9,70,0.00,CLR,,0.00,0.0,WeatherDisplay:10.37,2013-03-30 19:58:00,
2013-03-30 20:03:00,36.3,27.4,30.00,ESE,113,6.9,6.9,70,0.00,CLR,,0.00,0.0,WeatherDisplay:10.37,2013-03-30 20:03:00,
2013-03-30 20:08:00,36.3,27.4,30.00,ESE,113,5.8,5.8,70,0.00,CLR,,0.00,0.0,WeatherDisplay:10.37,2013-03-30 20:08:00,
2013-03-30 20:13:00,36.2,27.4,30.00,ESE,115,6.9,6.9,70,0.00,CLR,,0.00,0.0,WeatherDisplay:10.37,2013-03-30 20:13:00,
2013-03-30 20:18:00,36.2,27.7,30.00,ESE,123,3.5,3.5,71,0.00,CLR,,0.00,0.0,WeatherDisplay:10.37,2013-03-30 20:18:00,
2013-03-30 20:23:00,36.1,27.3,30.01,SE,132,6.9,6.9,70,0.00,CLR,,0.00,0.0,WeatherDisplay:10.37,2013-03-30 20:23:00,
2013-03-30 20:28:00,36.0,27.2,30.00,SE,142,3.5,3.5,70,0.00,CLR,,0.00,0.0,WeatherDisplay:10.37,2013-03-30 20:28:00,
2013-03-30 20:33:00,35.9,27.4,30.01,SE,134,9.2,9.2,71,0.00,CLR,,0.00,0.0,WeatherDisplay:10.37,2013-03-30 20:33:00,
2013-03-30 20:39:00,35.8,27.7,30.01,ESE,119,5.8,5.8,72,0.00,CLR,,0.00,0.0,WeatherDisplay:10.37,2013-03-30 20:39:00,
2013-03-30 20:44:00,35.6,27.5,30.01,SE,133,3.5,3.5,72,0.00,CLR,,0.00,0.0,WeatherDisplay:10.37,2013-03-30 20:44:00,
2013-03-30 20:49:00,35.5,27.4,30.01,SE,136,4.6,4.6,72,0.00,CLR,,0.00,0.0,WeatherDisplay:10.37,2013-03-30 20:49:00,
2013-03-30 20:54:00,35.3,27.5,30.01,ESE,120,3.5,3.5,73,0.00,CLR,,0.00,0.0,WeatherDisplay:10.37,2013-03-30 20:54:00,
2013-03-30 20:59:00,35.1,27.3,30.01,SE,131,3.5,3.5,73,0.00,CLR,,0.00,0.0,WeatherDisplay:10.37,2013-03-30 20:59:00,
2013-03-30 21:04:00,34.8,26.7,30.01,SE,131,4.6,4.6,72,0.00,CLR,,0.00,0.0,WeatherDisplay:10.37,2013-03-30 21:04:00,
2013-03-30 21:09:00,34.6,26.8,30.01,SE,131,3.5,3.5,73,0.00,CLR,,0.00,0.0,WeatherDisplay:10.37,2013-03-30 21:09:00,
2013-03-30 21:14:00,34.4,26.3,30.01,SE,130,3.5,3.5,72,0.00,CLR,,0.00,0.0,WeatherDisplay:10.37,2013-03-30 21:14:00,
2013-03-30 21:19:00,34.1,26.3,30.01,SE,128,3.5,3.5,73,0.00,CLR,,0.00,0.0,WeatherDisplay:10.37,2013-03-30 21:19:00,
2013-03-30 21:24:00,33.9,26.2,30.01,SE,130,3.5,3.5,73,0.00,CLR,,0.00,0.0,WeatherDisplay:10.37,2013-03-30 21:24:00,
2013-03-30 21:29:00,33.7,26.0,30.01,SE,129,3.0,3.0,73,0.00,CLR,,0.00,0.0,WeatherDisplay:10.37,2013-03-30 21:29:00,
2013-03-30 21:34:00,33.5,25.8,30.01,SE,130,1.2,1.2,73,0.00,CLR,,0.00,0.0,WeatherDisplay:10.37,2013-03-30 21:34:00,
2013-03-30 21:39:00,33.3,25.9,30.01,SE,129,3.5,3.5,74,0.00,CLR,,0.00,0.0,WeatherDisplay:10.37,2013-03-30 21:39:00,
2013-03-30 21:44:00,33.1,25.7,30.01,SE,129,2.3,2.3,74,0.00,CLR,,0.00,0.0,WeatherDisplay:10.37,2013-03-30 21:44:00,
2013-03-30 21:49:00,32.8,25.4,30.01,SE,131,4.6,4.6,74,0.00,CLR,,0.00,0.0,WeatherDisplay:10.37,2013-03-30 21:49:00,
2013-03-30 21:54:00,32.7,25.6,30.01,SE,132,4.6,4.6,75,0.00,CLR,,0.00,0.0,WeatherDisplay:10.37,2013-03-30 21:54:00,
2013-03-30 21:59:00,32.7,25.6,30.01,SE,132,2.3,2.3,75,0.00,CLR,,0.00,0.0,WeatherDisplay:10.37,2013-03-30 21:59:00,
2013-03-30 22:04:00,32.7,25.6,30.01,SE,131,3.0,3.0,75,0.00,CLR,,0.00,0.0,WeatherDisplay:10.37,2013-03-30 22:04:00,
2013-03-30 22:09:00,32.6,25.6,30.01,SE,132,1.2,1.2,75,0.00,CLR,,0.00,0.0,WeatherDisplay:10.37,2013-03-30 22:09:00,
2013-03-30 22:14:00,32.4,25.7,30.01,SE,132,1.2,1.2,76,0.00,CLR,,0.00,0.0,WeatherDisplay:10.37,2013-03-30 22:14:00,
2013-03-30 22:19:00,32.3,25.6,30.01,SE,130,2.3,2.3,76,0.00,CLR,,0.00,0.0,WeatherDisplay:10.37,2013-03-30 22:19:00,
2013-03-30 22:24:00,32.1,25.1,30.02,SE,132,2.3,2.3,75,0.00,CLR,,0.00,0.0,WeatherDisplay:10.37,2013-03-30 22:24:00,
2013-03-30 22:29:00,31.9,24.9,30.01,SE,132,1.2,1.2,75,0.00,CLR,,0.00,0.0,WeatherDisplay:10.37,2013-03-30 22:29:00,
2013-03-30 22:34:00,31.7,25.0,30.01,SE,131,1.2,1.2,76,0.00,CLR,,0.00,0.0,WeatherDisplay:10.37,2013-03-30 22:34:00,
2013-03-30 22:39:00,31.5,24.8,30.01,SE,130,0.0,0.0,76,0.00,CLR,,0.00,0.0,WeatherDisplay:10.37,2013-03-30 22:39:00,
2013-03-30 22:44:00,31.3,24.6,30.01,SE,132,0.0,0.0,76,0.00,CLR,,0.00,0.0,WeatherDisplay:10.37,2013-03-30 22:44:00,
2013-03-30 22:49:00,31.1,24.4,30.01,SE,132,0.0,0.0,76,0.00,CLR,,0.00,0.0,WeatherDisplay:10.37,2013-03-30 22:49:00,
2013-03-30 22:54:00,30.9,24.2,30.01,SE,131,0.0,0.0,76,0.00,CLR,,0.00,0.0,WeatherDisplay:10.37,2013-03-30 22:54:00,
2013-03-30 22:59:00,30.7,24.3,30.01,SE,132,0.0,0.0,77,0.00,CLR,,0.00,0.0,WeatherDisplay:10.37,2013-03-30 22:59:00,
2013-03-30 23:04:00,30.4,24.1,30.01,SE,132,0.0,0.0,77,0.00,CLR,,0.00,0.0,WeatherDisplay:10.37,2013-03-30 23:04:00,
2013-03-30 23:09:00,30.2,24.2,30.01,SE,132,0.0,0.0,78,0.00,CLR,,0.00,0.0,WeatherDisplay:10.37,2013-03-30 23:09:00,
2013-03-30 23:14:00,30.0,24.0,30.01,SE,130,0.0,0.0,78,0.00,CLR,,0.00,0.0,WeatherDisplay:10.37,2013-03-30 23:14:00,
2013-03-30 23:19:00,29.8,23.8,30.01,SE,132,0.0,0.0,78,0.00,CLR,,0.00,0.0,WeatherDisplay:10.37,2013-03-30 23:19:00,
2013-03-30 23:24:00,29.6,23.9,30.01,SE,130,0.0,0.0,79,0.00,CLR,,0.00,0.0,WeatherDisplay:10.37,2013-03-30 23:24:00,
2013-03-30 23:29:00,29.4,23.7,30.01,SE,131,0.0,0.0,79,0.00,CLR,,0.00,0.0,WeatherDisplay:10.37,2013-03-30 23:29:00,
2013-03-30 23:34:00,29.2,23.5,30.01,SE,131,0.0,0.0,79,0.00,CLR,,0.00,0.0,WeatherDisplay:10.37,2013-03-30 23:34:00,
2013-03-30 23:39:00,29.0,23.6,30.02,SE,130,0.0,0.0,80,0.00,CLR,,0.00,0.0,WeatherDisplay:10.37,2013-03-30 23:39:00,
2013-03-30 23:44:00,28.8,23.4,30.02,SE,132,0.0,0.0,80,0.00,CLR,,0.00,0.0,WeatherDisplay:10.37,2013-03-30 23:44:00,
2013-03-30 23:49:00,28.7,23.3,30.02,SE,131,0.0,0.0,80,0.00,CLR,,0.00,0.0,WeatherDisplay:10.37,2013-03-30 23:49:00,
2013-03-30 23:54:00,28.5,23.4,30.02,SE,130,0.0,0.0,81,0.00,CLR,,0.00,0.0,WeatherDisplay:10.37,2013-03-30 23:54:00,
2013-03-30 23:59:00,28.4,23.3,30.01,SE,130,0.0,0.0,81,0.00,CLR,,0.00,0.0,WeatherDisplay:10.37,2013-03-30 23:59:00,